createdAt,value
2022-10-03T00:04:38.917Z,8.29
2022-10-03T00:10:33.155Z,8.31
2022-10-03T00:16:14.527Z,8.33
2022-10-03T00:27:35.913Z,8.57
2022-10-03T00:33:21.067Z,8.49
2022-10-03T00:39:09.424Z,8.54
2022-10-03T00:45:27.542Z,8.60
2022-10-03T00:51:21.753Z,8.61
2022-10-03T00:57:07.135Z,8.65
2022-10-03T01:02:55.891Z,8.66
2022-10-03T01:08:55.258Z,8.72
2022-10-03T01:14:34.546Z,8.76
2022-10-03T01:20:29.968Z,8.82
2022-10-03T01:26:12.374Z,8.87
2022-10-03T01:31:42.631Z,8.93
2022-10-03T01:37:11.963Z,8.95
2022-10-03T01:43:12.449Z,8.96
2022-10-03T01:48:45.254Z,8.99
2022-10-03T01:54:55.557Z,9.02
2022-10-03T02:00:30.981Z,9.05
2022-10-03T02:06:24.405Z,9.10
2022-10-03T02:12:15.804Z,9.15
2022-10-03T02:18:04.295Z,9.29
2022-10-03T02:23:47.240Z,9.21
2022-10-03T02:29:44.208Z,9.36
2022-10-03T02:35:37.021Z,9.28
2022-10-03T02:41:52.422Z,9.35
2022-10-03T02:47:40.291Z,9.40
2022-10-03T02:53:27.330Z,9.44
2022-10-03T02:59:03.235Z,9.50
2022-10-03T03:05:18.783Z,9.55
2022-10-03T03:10:51.575Z,9.58
2022-10-03T03:16:53.289Z,9.57
2022-10-03T03:22:36.788Z,9.59
2022-10-03T03:28:16.630Z,9.60
2022-10-03T03:34:03.414Z,9.65
2022-10-03T03:39:47.135Z,9.67
2022-10-03T03:45:46.239Z,9.72
2022-10-03T03:51:19.308Z,9.77
2022-10-03T03:57:24.130Z,9.82
2022-10-03T04:03:06.338Z,9.88
2022-10-03T04:08:59.483Z,9.89
2022-10-03T04:14:55.472Z,9.90
2022-10-03T04:20:46.659Z,9.91
2022-10-03T04:26:15.879Z,9.94
2022-10-03T04:31:59.780Z,9.94
2022-10-03T04:37:48.500Z,9.95
2022-10-03T04:43:44.034Z,9.98
2022-10-03T04:49:20.035Z,9.95
2022-10-03T04:55:11.864Z,10.02
2022-10-03T05:00:57.141Z,9.94
2022-10-03T05:06:41.479Z,9.94
2022-10-03T05:12:21.254Z,9.97
2022-10-03T05:18:06.636Z,9.96
2022-10-03T05:23:53.671Z,9.88
2022-10-03T05:29:43.036Z,9.90
2022-10-03T05:35:45.857Z,9.87
2022-10-03T05:41:32.733Z,9.93
2022-10-03T05:47:40.444Z,9.98
2022-10-03T05:53:42.262Z,10.04
2022-10-03T05:59:31.075Z,10.14
2022-10-03T06:05:39.023Z,10.22
2022-10-03T06:11:29.330Z,10.25
2022-10-03T06:17:14.304Z,10.20
2022-10-03T06:22:50.542Z,10.20
2022-10-03T06:28:47.497Z,10.33
2022-10-03T06:34:26.037Z,10.46
2022-10-03T06:40:25.256Z,10.62
2022-10-03T06:46:08.036Z,10.93
2022-10-03T06:51:54.947Z,11.20
2022-10-03T06:57:49.629Z,11.16
2022-10-03T07:03:25.217Z,11.18
2022-10-03T07:09:44.448Z,11.39
2022-10-03T07:16:25.376Z,11.40
2022-10-03T07:21:47.672Z,11.54
2022-10-03T07:27:50.153Z,11.57
2022-10-03T07:33:36.716Z,11.57
2022-10-03T07:39:35.092Z,11.78
2022-10-03T07:45:45.510Z,11.84
2022-10-03T07:51:15.454Z,12.03
2022-10-03T07:57:01.000Z,12.08
2022-10-03T08:02:52.241Z,12.14
2022-10-03T08:08:49.807Z,12.28
2022-10-03T08:14:40.345Z,12.38
2022-10-03T08:20:40.353Z,12.32
2022-10-03T08:26:35.324Z,12.32
2022-10-03T08:32:33.815Z,12.36
2022-10-03T08:38:32.185Z,12.48
2022-10-03T08:44:08.639Z,12.36
2022-10-03T08:50:10.584Z,12.35
2022-10-03T08:55:47.163Z,12.53
2022-10-03T09:01:29.890Z,12.72
2022-10-03T09:07:22.936Z,12.76
2022-10-03T09:13:16.354Z,12.61
2022-10-03T09:18:46.268Z,11.81
2022-10-03T09:24:37.635Z,10.73
2022-10-03T09:30:37.492Z,10.43
2022-10-03T09:36:38.433Z,10.62
2022-10-03T09:42:09.109Z,10.81
2022-10-03T09:48:09.713Z,10.99
2022-10-03T09:54:11.627Z,11.19
2022-10-03T10:00:02.036Z,11.19
2022-10-03T10:05:48.033Z,10.73
2022-10-03T10:11:38.433Z,10.40
2022-10-03T10:17:30.412Z,10.43
2022-10-03T10:23:38.350Z,11.32
2022-10-03T10:29:30.146Z,11.81
2022-10-03T10:35:29.483Z,12.43
2022-10-03T10:41:38.777Z,12.28
2022-10-03T10:47:29.149Z,12.99
2022-10-03T10:53:16.435Z,13.34
2022-10-03T10:59:14.589Z,13.35
2022-10-03T11:04:50.930Z,12.83
2022-10-03T11:10:26.515Z,12.78
2022-10-03T11:16:07.198Z,13.01
2022-10-03T11:22:09.447Z,14.26
2022-10-03T11:28:18.970Z,14.79
2022-10-03T11:34:21.455Z,14.68
2022-10-03T11:40:00.057Z,14.13
2022-10-03T11:45:38.951Z,15.38
2022-10-03T11:51:11.954Z,14.48
2022-10-03T11:56:50.660Z,14.28
2022-10-03T12:02:45.225Z,15.10
2022-10-03T12:08:58.254Z,15.90
2022-10-03T12:14:45.943Z,15.81
2022-10-03T12:26:14.692Z,14.38
2022-10-03T12:31:47.196Z,13.82
2022-10-03T12:37:28.715Z,13.08
2022-10-03T12:43:11.006Z,12.89
2022-10-03T12:49:28.174Z,12.85
2022-10-03T12:55:03.550Z,12.85
2022-10-03T13:00:32.759Z,12.83
2022-10-03T13:06:14.909Z,13.40
2022-10-03T13:12:08.030Z,13.91
2022-10-03T13:17:40.627Z,14.62
2022-10-03T13:23:30.723Z,15.17
2022-10-03T13:29:23.444Z,15.00
2022-10-03T13:35:25.923Z,13.59
2022-10-03T13:40:53.224Z,13.37
2022-10-03T13:46:21.561Z,14.86
2022-10-03T13:51:53.383Z,15.36
2022-10-03T13:57:23.271Z,16.23
2022-10-03T14:03:14.665Z,16.02
2022-10-03T14:08:47.226Z,14.77
2022-10-03T14:14:41.990Z,14.99
2022-10-03T14:20:37.501Z,14.01
2022-10-03T14:26:10.174Z,13.14
2022-10-03T14:31:57.423Z,12.82
2022-10-03T14:37:48.744Z,13.99
2022-10-03T14:43:49.047Z,13.74
2022-10-03T14:49:32.911Z,13.27
2022-10-03T14:54:48.643Z,12.98
2022-10-03T15:00:13.736Z,12.81
2022-10-03T15:05:49.355Z,12.76
2022-10-03T15:11:37.534Z,14.32
2022-10-03T15:17:03.775Z,14.68
2022-10-03T15:22:47.854Z,14.67
2022-10-03T15:28:29.919Z,14.22
2022-10-03T15:33:55.141Z,13.97
2022-10-03T15:39:37.249Z,13.42
2022-10-03T15:45:05.275Z,12.94
2022-10-03T15:50:45.652Z,12.47
2022-10-03T15:56:19.793Z,12.13
2022-10-03T16:01:50.469Z,12.22
2022-10-03T16:07:51.717Z,12.18
2022-10-03T16:13:30.007Z,12.05
2022-10-03T16:19:36.857Z,11.96
2022-10-03T16:25:16.362Z,11.90
2022-10-03T16:30:52.605Z,11.76
2022-10-03T16:36:19.629Z,11.70
2022-10-03T16:41:49.912Z,11.65
2022-10-03T16:47:15.755Z,11.59
2022-10-03T16:53:00.511Z,11.69
2022-10-03T16:58:27.594Z,11.54
2022-10-03T17:04:08.737Z,11.51
2022-10-03T17:09:53.850Z,11.41
2022-10-03T17:15:23.856Z,11.31
2022-10-03T17:21:00.316Z,11.27
2022-10-03T17:26:32.662Z,11.14
2022-10-03T17:32:07.796Z,11.02
2022-10-03T17:37:38.932Z,10.95
2022-10-03T17:43:14.697Z,10.88
2022-10-03T17:48:41.737Z,10.90
2022-10-03T17:54:08.636Z,10.79
2022-10-03T17:59:42.501Z,10.60
2022-10-03T18:05:19.052Z,10.36
2022-10-03T18:10:50.007Z,10.18
2022-10-03T18:16:29.267Z,9.96
2022-10-03T18:22:04.698Z,9.85
2022-10-03T18:27:53.838Z,9.80
2022-10-03T18:33:23.367Z,9.63
2022-10-03T18:38:51.886Z,9.57
2022-10-03T18:44:17.014Z,9.49
2022-10-03T18:49:44.932Z,9.31
2022-10-03T18:55:18.444Z,9.20
2022-10-03T19:00:55.185Z,9.31
2022-10-03T19:06:22.285Z,9.21
2022-10-03T19:12:00.825Z,9.15
2022-10-03T19:18:21.398Z,9.10
2022-10-03T19:23:47.676Z,9.14
2022-10-03T19:29:15.129Z,9.18
2022-10-03T19:34:57.728Z,9.25
2022-10-03T19:40:40.325Z,9.34
2022-10-03T19:46:13.382Z,9.43
2022-10-03T19:51:38.836Z,9.51
2022-10-03T19:57:01.558Z,9.63
2022-10-03T20:02:31.768Z,9.63
2022-10-03T20:08:07.912Z,9.66
2022-10-03T20:13:30.507Z,9.73
2022-10-03T20:18:55.362Z,9.83
2022-10-03T20:24:37.523Z,9.68
2022-10-03T20:30:40.352Z,9.66
2022-10-03T20:36:34.265Z,9.73
2022-10-03T20:42:15.778Z,9.84
2022-10-03T20:48:07.207Z,9.85
2022-10-03T20:53:38.799Z,9.73
2022-10-03T20:59:04.214Z,9.76
2022-10-03T21:04:41.089Z,9.75
2022-10-03T21:10:22.816Z,9.74
2022-10-03T21:15:56.697Z,9.79
2022-10-03T21:21:37.397Z,9.81
2022-10-03T21:27:21.323Z,9.84
2022-10-03T21:33:07.512Z,9.78
2022-10-03T21:38:42.774Z,9.70
2022-10-03T21:44:24.815Z,9.65
2022-10-03T21:50:15.015Z,9.58
2022-10-03T21:55:52.225Z,9.54
2022-10-03T22:01:40.805Z,9.51
2022-10-03T22:07:35.418Z,9.49
2022-10-03T22:13:14.938Z,9.57
2022-10-03T22:18:42.205Z,9.35
2022-10-03T22:24:09.259Z,9.28
2022-10-03T22:30:04.725Z,9.36
2022-10-03T22:35:37.714Z,9.41
2022-10-03T22:41:00.965Z,9.38
2022-10-03T22:46:28.009Z,9.37
2022-10-03T22:51:51.913Z,9.38
2022-10-03T22:57:17.956Z,9.47
2022-10-03T23:02:51.049Z,9.52
2022-10-03T23:08:30.079Z,9.52
2022-10-03T23:14:01.851Z,9.50
2022-10-03T23:25:26.811Z,9.73
2022-10-03T23:30:58.354Z,9.67
2022-10-03T23:36:28.115Z,9.78
2022-10-03T23:42:03.128Z,9.95
2022-10-03T23:47:29.459Z,10.02
2022-10-03T23:53:06.945Z,9.95
2022-10-03T23:58:44.511Z,9.61
